KBVO/BVO METAR and TAF weather

Enter ICAO airport designator
Station Type Date Time Source
KBVO METAR 2023/02/04 01:53 UTC NOAA

KBVO 040153Z AUTO 17006KT 10SM CLR 02/M06 A3041 RMK AO2 SLP303 T00171056


Station Type Date Time Source
KBVO Decoded METAR 2023/02/04 01:53 UTC NOAA

BARTLESVILLE MUNICIPAL AIRPORT , OK, United States (KBVO) 36-46N 96-01W 210M
Feb 03, 2023 - 08:53 PM EST / 2023.02.04 0153 UTC
Wind: from the S (170 degrees) at 7 MPH (6 KT):0
Visibility: 10 mile(s):0
Sky conditions: clear
Temperature: 35.1 F (1.7 C)
Dew Point: 21.9 F (-5.6 C)
Relative Humidity: 58%
Pressure (altimeter): 30.41 in. Hg (1029 hPa)
ob: KBVO 040153Z AUTO 17006KT 10SM CLR 02/M06 A3041 RMK AO2 SLP303 T00171056
cycle: 2

Station Type Date Time Source
KBVO TAF 2023/02/03 18:22 UTC NOAA

TAF KBVO 031720Z 0318/0418 01005KT P6SM SKC
FM031900 19009KT P6SM SKC
FM040600 19011KT P6SM SCT250 WS020/22040KT
FM041500 20015G26KT P6SM BKN200

Example: see airport list